Time,TemperatureF,DewpointF,PressureIn,WindDirection,WindDirectionDegrees,WindSpeedMPH,WindSpeedGustMPH,Humidity,HourlyPrecipIn,Conditions,Clouds,dailyrainin,SoftwareType,DateUTC
2013-05-21 00:05:00,43.1,41.8,29.73,NE,45,4.0,11.0,95,0.00,,,-99.99,WeatherLink 5.7,2013-05-21 05:05:00,
2013-05-21 00:15:00,42.9,41.6,29.73,East,90,5.0,20.0,95,0.00,,,-99.99,WeatherLink 5.7,2013-05-21 05:15:00,
2013-05-21 00:25:00,42.8,41.5,29.72,East,90,4.0,12.0,95,0.00,,,-99.99,WeatherLink 5.7,2013-05-21 05:25:00,
2013-05-21 00:35:00,42.8,41.5,29.71,East,90,5.0,13.0,95,0.00,,,-99.99,WeatherLink 5.7,2013-05-21 05:35:00,
2013-05-21 00:45:00,42.9,41.6,29.71,East,90,5.0,19.0,95,0.00,,,-99.99,WeatherLink 5.7,2013-05-21 05:45:00,
2013-05-21 00:55:00,42.9,41.6,29.72,NE,45,6.0,20.0,95,0.01,,,-99.99,WeatherLink 5.7,2013-05-21 05:55:00,
2013-05-21 01:05:00,42.8,41.5,29.71,East,90,5.0,14.0,95,0.01,,,-99.99,WeatherLink 5.7,2013-05-21 06:05:00,
2013-05-21 01:15:00,42.8,41.5,29.71,East,90,5.0,18.0,95,0.01,,,-99.99,WeatherLink 5.7,2013-05-21 06:15:00,
2013-05-21 01:25:00,42.8,41.5,29.70,East,90,6.0,15.0,95,0.01,,,-99.99,WeatherLink 5.7,2013-05-21 06:25:00,
2013-05-21 01:35:00,42.8,41.5,29.71,East,90,4.0,11.0,95,0.01,,,-99.99,WeatherLink 5.7,2013-05-21 06:35:00,
2013-05-21 01:45:00,42.8,41.5,29.71,ENE,67,3.0,12.0,95,0.01,,,-99.99,WeatherLink 5.7,2013-05-21 06:45:00,
2013-05-21 01:55:00,42.8,41.5,29.71,East,90,4.0,14.0,95,0.00,,,-99.99,WeatherLink 5.7,2013-05-21 06:55:00,
2013-05-21 02:05:00,42.8,41.5,29.69,East,90,5.0,18.0,95,0.00,,,-99.99,WeatherLink 5.7,2013-05-21 07:05:00,
2013-05-21 02:15:00,42.8,41.5,29.69,East,90,5.0,16.0,95,0.00,,,-99.99,WeatherLink 5.7,2013-05-21 07:15:00,
2013-05-21 02:25:00,42.9,41.6,29.70,East,90,5.0,18.0,95,0.00,,,-99.99,WeatherLink 5.7,2013-05-21 07:25:00,
2013-05-21 02:35:00,42.8,41.5,29.69,East,90,5.0,16.0,95,0.00,,,-99.99,WeatherLink 5.7,2013-05-21 07:35:00,
2013-05-21 02:45:00,42.8,41.5,29.69,East,90,5.0,16.0,95,0.00,,,-99.99,WeatherLink 5.7,2013-05-21 07:45:00,
2013-05-21 02:55:00,42.6,41.3,29.68,East,90,6.0,17.0,95,0.00,,,-99.99,WeatherLink 5.7,2013-05-21 07:55:00,
2013-05-21 03:05:00,42.7,41.4,29.67,ENE,67,5.0,16.0,95,0.00,,,-99.99,WeatherLink 5.7,2013-05-21 08:05:00,
2013-05-21 03:15:00,42.8,41.5,29.67,ENE,67,5.0,15.0,95,0.00,,,-99.99,WeatherLink 5.7,2013-05-21 08:15:00,
2013-05-21 03:25:00,42.8,41.5,29.68,East,90,5.0,15.0,95,0.00,,,-99.99,WeatherLink 5.7,2013-05-21 08:25:00,
2013-05-21 03:35:00,42.8,41.5,29.67,ENE,67,6.0,20.0,95,0.00,,,-99.99,WeatherLink 5.7,2013-05-21 08:35:00,
2013-05-21 03:45:00,42.9,41.6,29.67,ENE,67,4.0,13.0,95,0.00,,,-99.99,WeatherLink 5.7,2013-05-21 08:45:00,
2013-05-21 03:55:00,43.0,41.7,29.68,ENE,67,4.0,15.0,95,0.00,,,-99.99,WeatherLink 5.7,2013-05-21 08:55:00,
2013-05-21 04:05:00,43.1,41.8,29.68,East,90,5.0,18.0,95,0.00,,,-99.99,WeatherLink 5.7,2013-05-21 09:05:00,
2013-05-21 04:15:00,43.2,41.9,29.68,East,90,5.0,16.0,95,0.00,,,-99.99,WeatherLink 5.7,2013-05-21 09:15:00,
2013-05-21 04:25:00,43.2,41.9,29.68,East,90,5.0,15.0,95,0.00,,,-99.99,WeatherLink 5.7,2013-05-21 09:25:00,
2013-05-21 04:35:00,43.2,41.9,29.69,East,90,4.0,17.0,95,0.00,,,-99.99,WeatherLink 5.7,2013-05-21 09:35:00,
2013-05-21 04:45:00,43.2,41.9,29.69,East,90,4.0,14.0,95,0.00,,,-99.99,WeatherLink 5.7,2013-05-21 09:45:00,
2013-05-21 04:55:00,42.9,41.6,29.71,East,90,6.0,14.0,95,0.00,,,-99.99,WeatherLink 5.7,2013-05-21 09:55:00,
2013-05-21 05:05:00,42.6,41.3,29.70,East,90,4.0,15.0,95,0.00,,,-99.99,WeatherLink 5.7,2013-05-21 10:05:00,
2013-05-21 05:15:00,42.3,41.0,29.70,ENE,67,4.0,15.0,95,0.00,,,-99.99,WeatherLink 5.7,2013-05-21 10:15:00,
2013-05-21 05:25:00,42.4,41.1,29.70,East,90,6.0,18.0,95,0.00,,,-99.99,WeatherLink 5.7,2013-05-21 10:25:00,
2013-05-21 05:35:00,42.5,41.2,29.70,East,90,5.0,16.0,95,0.00,,,-99.99,WeatherLink 5.7,2013-05-21 10:35:00,
2013-05-21 05:45:00,42.8,41.5,29.70,East,90,6.0,18.0,95,0.01,,,-99.99,WeatherLink 5.7,2013-05-21 10:45:00,
2013-05-21 05:55:00,43.0,41.7,29.69,ENE,67,6.0,17.0,95,0.01,,,-99.99,WeatherLink 5.7,2013-05-21 10:55:00,
2013-05-21 06:05:00,43.1,41.8,29.70,East,90,5.0,21.0,95,0.01,,,-99.99,WeatherLink 5.7,2013-05-21 11:05:00,
2013-05-21 06:15:00,43.1,41.8,29.70,East,90,5.0,15.0,95,0.01,,,-99.99,WeatherLink 5.7,2013-05-21 11:15:00,
2013-05-21 06:25:00,42.9,41.6,29.71,East,90,4.0,13.0,95,0.01,,,-99.99,WeatherLink 5.7,2013-05-21 11:25:00,
2013-05-21 06:35:00,42.5,41.2,29.72,East,90,3.0,10.0,95,0.02,,,-99.99,WeatherLink 5.7,2013-05-21 11:35:00,
2013-05-21 06:45:00,41.7,40.4,29.72,East,90,3.0,15.0,95,0.03,,,-99.99,WeatherLink 5.7,2013-05-21 11:45:00,
2013-05-21 06:55:00,40.6,39.3,29.73,East,90,5.0,15.0,95,0.05,,,-99.99,WeatherLink 5.7,2013-05-21 11:55:00,
2013-05-21 07:05:00,40.2,38.9,29.73,East,90,4.0,14.0,95,0.11,,,-99.99,WeatherLink 5.7,2013-05-21 12:05:00,
2013-05-21 07:15:00,40.0,38.7,29.73,ENE,67,5.0,13.0,95,0.15,,,-99.99,WeatherLink 5.7,2013-05-21 12:15:00,
2013-05-21 07:25:00,40.1,38.8,29.73,East,90,4.0,14.0,95,0.18,,,-99.99,WeatherLink 5.7,2013-05-21 12:25:00,
2013-05-21 07:35:00,40.2,38.9,29.71,East,90,4.0,15.0,95,0.25,,,-99.99,WeatherLink 5.7,2013-05-21 12:35:00,
2013-05-21 07:45:00,40.7,39.4,29.71,ENE,67,3.0,9.0,95,0.27,,,-99.99,WeatherLink 5.7,2013-05-21 12:45:00,
2013-05-21 07:55:00,41.1,39.8,29.71,ENE,67,3.0,12.0,95,0.33,,,-99.99,WeatherLink 5.7,2013-05-21 12:55:00,
2013-05-21 08:05:00,41.5,40.2,29.71,East,90,3.0,14.0,95,0.32,,,-99.99,WeatherLink 5.7,2013-05-21 13:05:00,
2013-05-21 08:15:00,42.0,40.7,29.71,East,90,4.0,16.0,95,0.33,,,-99.99,WeatherLink 5.7,2013-05-21 13:15:00,
2013-05-21 08:25:00,42.3,41.0,29.70,East,90,4.0,13.0,95,0.33,,,-99.99,WeatherLink 5.7,2013-05-21 13:25:00,
2013-05-21 08:35:00,42.7,41.4,29.70,East,90,4.0,13.0,95,0.27,,,-99.99,WeatherLink 5.7,2013-05-21 13:35:00,
2013-05-21 08:45:00,43.0,41.7,29.70,East,90,5.0,16.0,95,0.25,,,-99.99,WeatherLink 5.7,2013-05-21 13:45:00,
2013-05-21 08:55:00,43.2,41.9,29.70,East,90,3.0,11.0,95,0.19,,,-99.99,WeatherLink 5.7,2013-05-21 13:55:00,
2013-05-21 09:05:00,43.4,42.1,29.70,NE,45,3.0,14.0,95,0.15,,,-99.99,WeatherLink 5.7,2013-05-21 14:05:00,
2013-05-21 09:15:00,43.4,42.1,29.70,East,90,3.0,10.0,95,0.12,,,-99.99,WeatherLink 5.7,2013-05-21 14:15:00,
2013-05-21 09:25:00,43.1,41.8,29.71,East,90,4.0,11.0,95,0.11,,,-99.99,WeatherLink 5.7,2013-05-21 14:25:00,
2013-05-21 09:35:00,42.8,41.5,29.71,East,90,4.0,11.0,95,0.12,,,-99.99,WeatherLink 5.7,2013-05-21 14:35:00,
2013-05-21 09:45:00,42.6,41.3,29.71,East,90,4.0,11.0,95,0.16,,,-99.99,WeatherLink 5.7,2013-05-21 14:45:00,
2013-05-21 09:55:00,42.3,41.0,29.72,East,90,4.0,12.0,95,0.18,,,-99.99,WeatherLink 5.7,2013-05-21 14:55:00,
2013-05-21 10:05:00,41.6,40.3,29.72,East,90,4.0,15.0,95,0.19,,,-99.99,WeatherLink 5.7,2013-05-21 15:05:00,
2013-05-21 10:15:00,41.2,39.9,29.72,East,90,4.0,14.0,95,0.21,,,-99.99,WeatherLink 5.7,2013-05-21 15:15:00,
2013-05-21 10:25:00,41.4,40.1,29.72,East,90,4.0,11.0,95,0.21,,,-99.99,WeatherLink 5.7,2013-05-21 15:25:00,
2013-05-21 10:30:00,41.6,40.3,29.73,East,90,4.0,13.0,95,0.20,,,-99.99,WeatherLink 5.7,2013-05-21 15:30:00,
2013-05-21 10:45:00,41.8,40.5,29.73,East,90,3.0,11.0,95,0.15,,,-99.99,WeatherLink 5.7,2013-05-21 15:45:00,
2013-05-21 10:55:00,42.1,40.8,29.73,East,90,4.0,11.0,95,0.12,,,-99.99,WeatherLink 5.7,2013-05-21 15:55:00,
2013-05-21 11:05:00,42.4,41.1,29.73,East,90,4.0,15.0,95,0.10,,,-99.99,WeatherLink 5.7,2013-05-21 16:05:00,
2013-05-21 11:15:00,42.5,41.2,29.73,East,90,4.0,16.0,95,0.07,,,-99.99,WeatherLink 5.7,2013-05-21 16:15:00,
2013-05-21 11:25:00,42.6,41.3,29.72,NNE,22,5.0,15.0,95,0.05,,,-99.99,WeatherLink 5.7,2013-05-21 16:25:00,
2013-05-21 11:35:00,42.8,41.5,29.72,East,90,5.0,14.0,95,0.04,,,-99.99,WeatherLink 5.7,2013-05-21 16:35:00,
2013-05-21 11:45:00,42.7,41.4,29.72,East,90,4.0,14.0,95,0.04,,,-99.99,WeatherLink 5.7,2013-05-21 16:45:00,
2013-05-21 11:55:00,42.8,41.5,29.73,East,90,4.0,14.0,95,0.04,,,-99.99,WeatherLink 5.7,2013-05-21 16:55:00,
2013-05-21 12:05:00,43.0,41.7,29.73,East,90,4.0,14.0,95,0.04,,,-99.99,WeatherLink 5.7,2013-05-21 17:05:00,
2013-05-21 12:15:00,43.2,41.9,29.73,East,90,3.0,12.0,95,0.03,,,-99.99,WeatherLink 5.7,2013-05-21 17:15:00,
2013-05-21 12:25:00,43.4,42.1,29.73,East,90,3.0,12.0,95,0.04,,,-99.99,WeatherLink 5.7,2013-05-21 17:25:00,
2013-05-21 12:35:00,43.6,42.3,29.73,East,90,3.0,9.0,95,0.03,,,-99.99,WeatherLink 5.7,2013-05-21 17:35:00,
2013-05-21 12:45:00,43.6,42.3,29.73,East,90,4.0,11.0,95,0.03,,,-99.99,WeatherLink 5.7,2013-05-21 17:45:00,
2013-05-21 12:55:00,43.7,42.4,29.72,East,90,5.0,14.0,95,0.02,,,-99.99,WeatherLink 5.7,2013-05-21 17:55:00,
2013-05-21 13:05:00,44.1,42.8,29.72,East,90,3.0,12.0,95,0.03,,,-99.99,WeatherLink 5.7,2013-05-21 18:05:00,
2013-05-21 13:15:00,44.5,43.2,29.72,East,90,3.0,9.0,95,0.03,,,-99.99,WeatherLink 5.7,2013-05-21 18:15:00,
2013-05-21 13:25:00,44.7,43.4,29.73,East,90,3.0,11.0,95,0.02,,,-99.99,WeatherLink 5.7,2013-05-21 18:25:00,
2013-05-21 13:35:00,44.9,43.6,29.73,East,90,4.0,22.0,95,0.02,,,-99.99,WeatherLink 5.7,2013-05-21 18:35:00,
2013-05-21 13:45:00,45.4,44.1,29.73,East,90,3.0,12.0,95,0.01,,,-99.99,WeatherLink 5.7,2013-05-21 18:45:00,
2013-05-21 13:55:00,45.5,44.2,29.73,East,90,3.0,13.0,95,0.01,,,-99.99,WeatherLink 5.7,2013-05-21 18:55:00,
2013-05-21 14:05:00,45.2,43.9,29.74,East,90,4.0,14.0,95,0.01,,,-99.99,WeatherLink 5.7,2013-05-21 19:05:00,
2013-05-21 14:15:00,44.6,43.3,29.74,East,90,5.0,15.0,95,0.01,,,-99.99,WeatherLink 5.7,2013-05-21 19:15:00,
2013-05-21 14:25:00,44.6,43.3,29.74,East,90,4.0,11.0,95,0.01,,,-99.99,WeatherLink 5.7,2013-05-21 19:25:00,
2013-05-21 14:35:00,44.7,43.4,29.74,East,90,4.0,20.0,95,0.01,,,-99.99,WeatherLink 5.7,2013-05-21 19:35:00,
2013-05-21 14:45:00,44.9,43.6,29.74,ENE,67,2.0,11.0,95,0.01,,,-99.99,WeatherLink 5.7,2013-05-21 19:45:00,
2013-05-21 14:55:00,44.2,42.9,29.75,East,90,3.0,13.0,95,0.01,,,-99.99,WeatherLink 5.7,2013-05-21 19:55:00,
2013-05-21 15:05:00,43.8,42.5,29.76,East,90,3.0,10.0,95,0.00,,,-99.99,WeatherLink 5.7,2013-05-21 20:05:00,
2013-05-21 15:15:00,43.3,42.0,29.76,ENE,67,2.0,7.0,95,0.00,,,-99.99,WeatherLink 5.7,2013-05-21 20:15:00,
2013-05-21 15:25:00,43.1,41.8,29.76,East,90,3.0,10.0,95,0.00,,,-99.99,WeatherLink 5.7,2013-05-21 20:25:00,
2013-05-21 15:35:00,43.6,42.3,29.76,East,90,3.0,10.0,95,0.00,,,-99.99,WeatherLink 5.7,2013-05-21 20:35:00,
2013-05-21 15:45:00,43.9,42.6,29.76,ENE,67,3.0,10.0,95,0.00,,,-99.99,WeatherLink 5.7,2013-05-21 20:45:00,
2013-05-21 15:55:00,44.3,43.0,29.76,East,90,3.0,12.0,95,0.00,,,-99.99,WeatherLink 5.7,2013-05-21 20:55:00,
2013-05-21 16:05:00,44.5,43.2,29.76,East,90,3.0,12.0,95,0.00,,,-99.99,WeatherLink 5.7,2013-05-21 21:05:00,
2013-05-21 16:15:00,44.3,43.0,29.76,East,90,2.0,9.0,95,0.00,,,-99.99,WeatherLink 5.7,2013-05-21 21:15:00,
2013-05-21 16:25:00,44.2,42.9,29.76,East,90,3.0,12.0,95,0.00,,,-99.99,WeatherLink 5.7,2013-05-21 21:25:00,
2013-05-21 16:35:00,44.5,43.2,29.76,East,90,3.0,9.0,95,0.00,,,-99.99,WeatherLink 5.7,2013-05-21 21:35:00,
2013-05-21 16:45:00,44.6,43.3,29.76,East,90,4.0,10.0,95,0.00,,,-99.99,WeatherLink 5.7,2013-05-21 21:45:00,
2013-05-21 16:55:00,45.0,43.7,29.76,East,90,3.0,10.0,95,0.00,,,-99.99,WeatherLink 5.7,2013-05-21 21:55:00,
2013-05-21 17:05:00,45.1,43.8,29.76,East,90,2.0,10.0,95,0.00,,,-99.99,WeatherLink 5.7,2013-05-21 22:05:00,
2013-05-21 17:15:00,44.8,43.5,29.76,East,90,2.0,9.0,95,0.00,,,-99.99,WeatherLink 5.7,2013-05-21 22:15:00,
2013-05-21 17:25:00,44.6,43.3,29.76,East,90,2.0,10.0,95,0.01,,,-99.99,WeatherLink 5.7,2013-05-21 22:25:00,
2013-05-21 17:35:00,45.1,43.8,29.77,East,90,2.0,9.0,95,0.01,,,-99.99,WeatherLink 5.7,2013-05-21 22:35:00,
2013-05-21 17:45:00,44.9,43.6,29.77,East,90,2.0,7.0,95,0.01,,,-99.99,WeatherLink 5.7,2013-05-21 22:45:00,
2013-05-21 17:55:00,44.8,43.5,29.77,East,90,2.0,6.0,95,0.01,,,-99.99,WeatherLink 5.7,2013-05-21 22:55:00,
2013-05-21 18:05:00,45.0,43.7,29.77,East,90,2.0,10.0,95,0.01,,,-99.99,WeatherLink 5.7,2013-05-21 23:05:00,
2013-05-21 18:15:00,44.9,43.6,29.77,East,90,3.0,9.0,95,0.01,,,-99.99,WeatherLink 5.7,2013-05-21 23:15:00,
2013-05-21 18:25:00,44.6,43.3,29.78,East,90,2.0,6.0,95,0.00,,,-99.99,WeatherLink 5.7,2013-05-21 23:25:00,
2013-05-21 18:35:00,44.8,43.5,29.78,East,90,3.0,7.0,95,0.00,,,-99.99,WeatherLink 5.7,2013-05-21 23:35:00,
2013-05-21 18:45:00,45.3,44.0,29.78,East,90,2.0,6.0,95,0.00,,,-99.99,WeatherLink 5.7,2013-05-21 23:45:00,
2013-05-21 18:55:00,45.3,44.0,29.78,East,90,3.0,9.0,95,0.00,,,-99.99,WeatherLink 5.7,2013-05-21 23:55:00,
2013-05-21 19:05:00,44.8,43.5,29.78,East,90,1.0,6.0,95,0.00,,,-99.99,WeatherLink 5.7,2013-05-22 00:05:00,
2013-05-21 19:15:00,43.9,42.6,29.78,East,90,2.0,6.0,95,0.00,,,-99.99,WeatherLink 5.7,2013-05-22 00:15:00,
2013-05-21 19:25:00,43.3,42.0,29.79,East,90,2.0,9.0,95,0.00,,,-99.99,WeatherLink 5.7,2013-05-22 00:25:00,
2013-05-21 19:35:00,43.5,42.2,29.79,NE,45,1.0,4.0,95,0.00,,,-99.99,WeatherLink 5.7,2013-05-22 00:35:00,
2013-05-21 19:45:00,43.9,42.6,29.79,East,90,1.0,6.0,95,0.00,,,-99.99,WeatherLink 5.7,2013-05-22 00:45:00,
2013-05-21 19:55:00,44.2,42.9,29.79,East,90,2.0,7.0,95,0.00,,,-99.99,WeatherLink 5.7,2013-05-22 00:55:00,
2013-05-21 20:05:00,44.5,43.2,29.78,East,90,2.0,10.0,95,0.00,,,-99.99,WeatherLink 5.7,2013-05-22 01:05:00,
2013-05-21 20:15:00,44.8,43.5,29.78,East,90,3.0,11.0,95,0.00,,,-99.99,WeatherLink 5.7,2013-05-22 01:15:00,
2013-05-21 20:25:00,45.0,43.7,29.78,ENE,67,2.0,11.0,95,0.00,,,-99.99,WeatherLink 5.7,2013-05-22 01:25:00,
2013-05-21 20:35:00,45.2,43.9,29.78,East,90,2.0,7.0,95,0.00,,,-99.99,WeatherLink 5.7,2013-05-22 01:35:00,
2013-05-21 20:45:00,45.2,43.9,29.78,ENE,67,2.0,8.0,95,0.00,,,-99.99,WeatherLink 5.7,2013-05-22 01:45:00,
2013-05-21 20:55:00,45.2,43.9,29.79,East,90,2.0,11.0,95,0.00,,,-99.99,WeatherLink 5.7,2013-05-22 01:55:00,
2013-05-21 21:05:00,45.2,43.9,29.80,East,90,3.0,11.0,95,0.01,,,-99.99,WeatherLink 5.7,2013-05-22 02:05:00,
2013-05-21 21:15:00,44.9,43.6,29.80,ENE,67,3.0,10.0,95,0.01,,,-99.99,WeatherLink 5.7,2013-05-22 02:15:00,
2013-05-21 21:25:00,44.6,43.3,29.81,East,90,3.0,10.0,95,0.01,,,-99.99,WeatherLink 5.7,2013-05-22 02:25:00,
2013-05-21 21:35:00,44.5,43.2,29.81,ENE,67,4.0,14.0,95,0.02,,,-99.99,WeatherLink 5.7,2013-05-22 02:35:00,
2013-05-21 21:45:00,44.2,42.9,29.81,ENE,67,3.0,13.0,95,0.02,,,-99.99,WeatherLink 5.7,2013-05-22 02:45:00,
2013-05-21 21:55:00,44.0,42.7,29.82,East,90,2.0,10.0,95,0.02,,,-99.99,WeatherLink 5.7,2013-05-22 02:55:00,
2013-05-21 22:05:00,44.0,42.7,29.82,East,90,3.0,10.0,95,0.02,,,-99.99,WeatherLink 5.7,2013-05-22 03:05:00,
2013-05-21 22:15:00,44.3,43.0,29.82,East,90,4.0,13.0,95,0.02,,,-99.99,WeatherLink 5.7,2013-05-22 03:15:00,
2013-05-21 22:25:00,44.3,43.0,29.82,East,90,4.0,13.0,95,0.02,,,-99.99,WeatherLink 5.7,2013-05-22 03:25:00,
2013-05-21 22:35:00,44.3,43.0,29.82,NE,45,6.0,20.0,95,0.02,,,-99.99,WeatherLink 5.7,2013-05-22 03:35:00,
2013-05-21 22:45:00,44.2,42.9,29.82,ENE,67,5.0,17.0,95,0.02,,,-99.99,WeatherLink 5.7,2013-05-22 03:45:00,
2013-05-21 22:55:00,44.1,42.8,29.82,East,90,5.0,16.0,95,0.02,,,-99.99,WeatherLink 5.7,2013-05-22 03:55:00,
2013-05-21 23:05:00,43.9,42.6,29.82,East,90,5.0,15.0,95,0.01,,,-99.99,WeatherLink 5.7,2013-05-22 04:05:00,
2013-05-21 23:15:00,43.8,42.5,29.82,East,90,5.0,17.0,95,0.02,,,-99.99,WeatherLink 5.7,2013-05-22 04:15:00,
2013-05-21 23:25:00,43.5,42.2,29.82,East,90,4.0,15.0,95,0.02,,,-99.99,WeatherLink 5.7,2013-05-22 04:25:00,
2013-05-21 23:35:00,43.5,42.2,29.82,ENE,67,5.0,18.0,95,0.01,,,-99.99,WeatherLink 5.7,2013-05-22 04:35:00,
2013-05-21 23:45:00,43.3,42.0,29.82,ENE,67,5.0,15.0,95,0.01,,,-99.99,WeatherLink 5.7,2013-05-22 04:45:00,
2013-05-21 23:55:00,43.3,42.0,29.83,East,90,5.0,15.0,95,0.01,,,-99.99,WeatherLink 5.7,2013-05-22 04:55:00,